createdAt,value
2022-09-01T00:00:49.029Z,101847.22
2022-09-01T00:03:19.704Z,101842.63
2022-09-01T00:05:46.271Z,101853.56
2022-09-01T00:08:16.290Z,101847.81
2022-09-01T00:10:45.181Z,101844.44
2022-09-01T00:13:11.534Z,101847.56
2022-09-01T00:15:37.938Z,101840.19
2022-09-01T00:18:04.497Z,101844.84
2022-09-01T00:20:30.989Z,101838.66
2022-09-01T00:22:57.522Z,101839.28
2022-09-01T00:25:24.744Z,101836.59
2022-09-01T00:27:51.456Z,101842.22
2022-09-01T00:30:21.674Z,101838.78
2022-09-01T00:32:48.110Z,101838.78
2022-09-01T00:35:16.553Z,101844.38
2022-09-01T00:37:42.929Z,101842.03
2022-09-01T00:40:10.525Z,101845.72
2022-09-01T00:42:37.659Z,101839.81
2022-09-01T00:45:04.725Z,101835.19
2022-09-01T00:47:31.077Z,101834.75
2022-09-01T00:49:58.127Z,101828.53
2022-09-01T00:52:24.482Z,101825.97
2022-09-01T00:54:53.648Z,101836.66
2022-09-01T00:57:20.604Z,101837.03
2022-09-01T00:59:49.960Z,101831.28
2022-09-01T01:02:16.720Z,101829.16
2022-09-01T01:04:43.739Z,101826.47
2022-09-01T01:07:10.813Z,101825.75
2022-09-01T01:09:40.244Z,101827.78
2022-09-01T01:12:07.443Z,101826.53
2022-09-01T01:14:34.801Z,101824.22
2022-09-01T01:17:01.249Z,101821.91
2022-09-01T01:19:55.508Z,101822.25
2022-09-01T01:22:58.477Z,101824.47
2022-09-01T01:25:25.484Z,101819.25
2022-09-01T01:27:52.058Z,101820.63
2022-09-01T01:30:20.784Z,101829.81
2022-09-01T01:32:49.390Z,101819.13
2022-09-01T01:35:16.793Z,101822.00
2022-09-01T01:37:49.042Z,101822.81
2022-09-01T01:40:17.037Z,101819.03
2022-09-01T01:42:47.917Z,101824.34
2022-09-01T01:45:17.165Z,101825.16
2022-09-01T01:47:48.014Z,101840.22
2022-09-01T01:50:14.604Z,101825.78
2022-09-01T01:52:41.914Z,101832.44
2022-09-01T01:55:12.543Z,101822.47
2022-09-01T01:57:40.065Z,101821.16
2022-09-01T02:00:07.654Z,101820.56
2022-09-01T02:02:34.071Z,101815.19
2022-09-01T02:05:00.528Z,101822.44
2022-09-01T02:07:27.432Z,101814.56
2022-09-01T02:09:57.904Z,101820.28
2022-09-01T02:12:25.182Z,101821.81
2022-09-01T02:14:54.716Z,101823.25
2022-09-01T02:17:21.573Z,101816.59
2022-09-01T02:19:48.458Z,101821.84
2022-09-01T02:22:14.961Z,101814.56
2022-09-01T02:24:46.439Z,101815.41
2022-09-01T02:27:12.907Z,101812.06
2022-09-01T02:29:43.182Z,101819.28
2022-09-01T02:32:11.596Z,101816.22
2022-09-01T02:34:39.933Z,101807.84
2022-09-01T02:37:06.314Z,101807.25
2022-09-01T02:39:33.462Z,101804.13
2022-09-01T02:42:01.259Z,101804.13
2022-09-01T02:44:29.089Z,101803.91
2022-09-01T02:46:55.958Z,101792.03
2022-09-01T02:49:25.724Z,101796.66
2022-09-01T02:51:53.946Z,101798.22
2022-09-01T02:54:24.536Z,101794.94
2022-09-01T02:56:54.350Z,101795.50
2022-09-01T02:59:21.944Z,101793.69
2022-09-01T03:01:49.785Z,101790.25
2022-09-01T03:04:17.488Z,101789.56
2022-09-01T03:06:44.238Z,101786.16
2022-09-01T03:09:13.523Z,101793.38
2022-09-01T03:11:40.951Z,101799.44
2022-09-01T03:14:08.037Z,101799.25
2022-09-01T03:16:34.684Z,101796.56
2022-09-01T03:19:03.178Z,101788.53
2022-09-01T03:21:32.024Z,101795.16
2022-09-01T03:23:59.326Z,101797.16
2022-09-01T03:26:25.746Z,101799.91
2022-09-01T03:28:52.267Z,101798.41
2022-09-01T03:31:19.845Z,101800.00
2022-09-01T03:33:46.399Z,101799.75
2022-09-01T03:36:19.243Z,101805.97
2022-09-01T03:38:48.763Z,101808.50
2022-09-01T03:41:17.742Z,101799.66
2022-09-01T03:43:47.073Z,101804.13
2022-09-01T03:46:20.123Z,101799.75
2022-09-01T03:48:52.062Z,101793.84
2022-09-01T03:51:18.994Z,101796.38
2022-09-01T03:53:45.998Z,101795.69
2022-09-01T03:56:13.957Z,101796.25
2022-09-01T03:58:41.736Z,101794.88
2022-09-01T04:01:08.439Z,101795.03
2022-09-01T04:03:41.144Z,101794.22
2022-09-01T04:06:09.164Z,101797.53
2022-09-01T04:08:36.249Z,101788.81
2022-09-01T04:11:10.794Z,101781.13
2022-09-01T04:13:39.204Z,101785.38
2022-09-01T04:16:26.005Z,101783.44
2022-09-01T04:18:52.428Z,101788.72
2022-09-01T04:21:20.069Z,101789.84
2022-09-01T04:23:47.029Z,101787.44
2022-09-01T04:26:20.309Z,101786.03
2022-09-01T04:28:48.267Z,101787.09
2022-09-01T04:31:17.729Z,101776.88
2022-09-01T04:33:46.629Z,101789.84
2022-09-01T04:36:19.553Z,101785.59
2022-09-01T04:38:47.086Z,101784.78
2022-09-01T04:41:17.698Z,101787.78
2022-09-01T04:43:45.296Z,101789.84
2022-09-01T04:46:14.321Z,101780.66
2022-09-01T04:48:46.096Z,101786.94
2022-09-01T04:51:13.122Z,101784.09
2022-09-01T04:53:40.291Z,101790.03
2022-09-01T04:56:07.514Z,101793.69
2022-09-01T04:58:34.113Z,101791.63
2022-09-01T05:01:06.276Z,101795.56
2022-09-01T05:03:32.683Z,101791.88
2022-09-01T05:06:03.774Z,101795.66
2022-09-01T05:08:35.113Z,101795.31
2022-09-01T05:11:06.174Z,101796.91
2022-09-01T05:13:32.804Z,101791.63
2022-09-01T05:16:01.892Z,101793.81
2022-09-01T05:18:28.745Z,101800.34
2022-09-01T05:20:55.565Z,101791.84
2022-09-01T05:23:22.025Z,101790.69
2022-09-01T05:25:49.753Z,101800.41
2022-09-01T05:28:17.871Z,101798.94
2022-09-01T05:30:45.699Z,101800.16
2022-09-01T05:33:19.891Z,101797.53
2022-09-01T05:35:55.818Z,101803.84
2022-09-01T05:38:22.984Z,101809.91
2022-09-01T05:41:00.691Z,101805.91
2022-09-01T05:43:27.752Z,101814.34
2022-09-01T05:46:06.133Z,101810.00
2022-09-01T05:48:39.760Z,101816.22
2022-09-01T05:51:17.633Z,101815.72
2022-09-01T05:53:56.427Z,101823.63
2022-09-01T05:56:24.050Z,101818.00
2022-09-01T06:01:40.942Z,101814.00
2022-09-01T06:04:08.515Z,101811.59
2022-09-01T06:06:55.090Z,101811.25
2022-09-01T06:09:24.500Z,101815.56
2022-09-01T06:11:51.858Z,101804.34
2022-09-01T06:14:18.232Z,101804.91
2022-09-01T06:16:45.827Z,101815.47
2022-09-01T06:19:12.635Z,101811.56
2022-09-01T06:21:39.772Z,101808.91
2022-09-01T06:24:07.655Z,101814.22
2022-09-01T06:26:35.874Z,101805.56
2022-09-01T06:29:04.662Z,101809.69
2022-09-01T06:31:35.125Z,101810.53
2022-09-01T06:34:03.189Z,101813.09
2022-09-01T06:36:35.080Z,101807.16
2022-09-01T06:39:01.614Z,101808.78
2022-09-01T06:41:28.549Z,101821.09
2022-09-01T06:43:55.275Z,101812.03
2022-09-01T06:46:23.662Z,101818.75
2022-09-01T06:48:50.386Z,101817.00
2022-09-01T06:51:21.999Z,101825.66
2022-09-01T06:53:56.412Z,101831.13
2022-09-01T06:56:24.175Z,101825.88
2022-09-01T06:58:52.321Z,101829.66
2022-09-01T07:01:20.323Z,101828.16
2022-09-01T07:03:48.058Z,101827.47
2022-09-01T07:16:29.737Z,101832.75
2022-09-01T07:17:23.250Z,101832.69
2022-09-01T07:19:49.911Z,101850.13
2022-09-01T07:25:12.000Z,101847.47
2022-09-01T07:27:50.387Z,101846.56
2022-09-01T07:30:18.982Z,101855.75
2022-09-01T07:32:50.508Z,101861.66
2022-09-01T07:35:21.145Z,101858.16
2022-09-01T07:38:47.501Z,101854.28
2022-09-01T07:43:29.805Z,101863.97
2022-09-01T07:46:00.483Z,101867.41
2022-09-01T07:48:36.711Z,101862.75
2022-09-01T07:54:05.610Z,101876.72
2022-09-01T07:56:34.269Z,101871.75
2022-09-01T07:59:03.056Z,101863.53
2022-09-01T08:01:29.523Z,101877.03
2022-09-01T08:03:57.635Z,101881.06
2022-09-01T08:06:27.851Z,101875.09
2022-09-01T08:08:56.995Z,101890.88
2022-09-01T08:11:58.169Z,101881.31
2022-09-01T08:14:11.828Z,101877.56
2022-09-01T08:16:40.071Z,101883.72
2022-09-01T08:19:18.577Z,101883.03
2022-09-01T08:21:45.034Z,101888.41
2022-09-01T08:24:11.394Z,101888.81
2022-09-01T08:26:37.811Z,101890.06
2022-09-01T08:29:04.963Z,101893.97
2022-09-01T08:31:31.417Z,101886.22
2022-09-01T08:33:58.961Z,101896.69
2022-09-01T08:36:26.053Z,101892.25
2022-09-01T08:38:52.966Z,101885.31
2022-09-01T08:41:19.359Z,101893.16
2022-09-01T08:44:06.477Z,101896.38
2022-09-01T08:46:37.569Z,101892.94
2022-09-01T08:49:24.779Z,101886.31
2022-09-01T08:52:10.710Z,101890.72
2022-09-01T08:54:42.601Z,101897.97
2022-09-01T08:57:18.351Z,101887.34
2022-09-01T08:59:44.825Z,101891.81
2022-09-01T09:02:12.038Z,101894.34
2022-09-01T09:04:38.548Z,101892.38
2022-09-01T09:07:10.637Z,101888.91
2022-09-01T09:10:02.683Z,101899.72
2022-09-01T09:12:29.077Z,101894.00
2022-09-01T09:15:04.371Z,101901.84
2022-09-01T09:17:35.295Z,101900.66
2022-09-01T09:20:02.110Z,101901.03
2022-09-01T09:22:28.610Z,101895.13
2022-09-01T09:25:00.130Z,101896.06
2022-09-01T09:27:37.468Z,101894.47
2022-09-01T09:30:09.584Z,101887.06
2022-09-01T09:33:11.739Z,101900.66
2022-09-01T09:35:33.326Z,101895.22
2022-09-01T09:38:44.408Z,101890.75
2022-09-01T09:41:18.859Z,101890.75
2022-09-01T09:43:58.401Z,101881.59
2022-09-01T09:46:31.568Z,101890.84
2022-09-01T09:49:13.003Z,101878.00
2022-09-01T09:51:40.807Z,101879.75
2022-09-01T09:54:42.452Z,101879.25
2022-09-01T09:57:08.829Z,101883.59
2022-09-01T10:00:00.740Z,101875.03
2022-09-01T10:02:31.869Z,101873.88
2022-09-01T10:04:59.440Z,101889.16
2022-09-01T10:07:33.818Z,101879.97
2022-09-01T10:10:02.218Z,101880.72
2022-09-01T10:12:29.736Z,101880.72
2022-09-01T10:15:12.596Z,101877.63
2022-09-01T10:17:43.634Z,101884.69
2022-09-01T10:20:14.965Z,101887.47
2022-09-01T10:22:41.498Z,101886.13
2022-09-01T10:25:10.382Z,101886.91
2022-09-01T10:27:38.761Z,101883.06
2022-09-01T10:30:12.595Z,101880.28
2022-09-01T10:32:50.768Z,101875.13
2022-09-01T10:35:24.113Z,101876.44
2022-09-01T10:37:51.441Z,101878.38
2022-09-01T10:40:33.409Z,101880.41
2022-09-01T10:43:21.001Z,101871.81
2022-09-01T10:45:54.938Z,101879.53
2022-09-01T10:48:36.624Z,101879.09
2022-09-01T10:51:18.242Z,101883.06
2022-09-01T10:53:52.144Z,101884.75
2022-09-01T10:56:28.849Z,101877.22
2022-09-01T11:01:52.904Z,101881.69
2022-09-01T11:04:22.516Z,101875.03
2022-09-01T11:09:43.369Z,101876.63
2022-09-01T11:12:29.089Z,101866.25
2022-09-01T11:14:56.391Z,101875.47
2022-09-01T11:17:25.380Z,101867.50
2022-09-01T11:19:58.116Z,101869.88
2022-09-01T11:22:30.308Z,101868.66
2022-09-01T11:25:02.485Z,101870.69
2022-09-01T11:27:50.070Z,101870.69
2022-09-01T11:30:18.176Z,101865.53
2022-09-01T11:32:47.256Z,101871.97
2022-09-01T11:35:21.737Z,101868.00
2022-09-01T11:37:52.085Z,101874.31
2022-09-01T11:40:36.988Z,101864.59
2022-09-01T11:43:10.609Z,101863.63
2022-09-01T11:45:54.228Z,101857.31
2022-09-01T11:48:20.752Z,101856.78
2022-09-01T11:50:56.670Z,101865.38
2022-09-01T11:56:12.242Z,101859.69
2022-09-01T11:58:41.816Z,101865.72
2022-09-01T12:01:14.337Z,101868.16
2022-09-01T12:03:41.218Z,101864.97
2022-09-01T12:06:09.643Z,101858.84
2022-09-01T12:08:40.872Z,101861.69
2022-09-01T12:11:08.879Z,101853.19
2022-09-01T12:13:36.174Z,101855.28
2022-09-01T12:16:18.069Z,101851.25
2022-09-01T12:18:47.490Z,101854.09
2022-09-01T12:21:33.767Z,101847.63
2022-09-01T12:24:12.387Z,101862.94
2022-09-01T12:26:39.028Z,101851.75
2022-09-01T12:29:07.339Z,101854.94
2022-09-01T12:31:34.373Z,101846.25
2022-09-01T12:34:04.596Z,101854.66
2022-09-01T12:36:33.339Z,101851.47
2022-09-01T12:39:18.055Z,101844.34
2022-09-01T12:42:00.915Z,101839.63
2022-09-01T12:44:34.494Z,101840.34
2022-09-01T12:47:06.794Z,101843.97
2022-09-01T12:49:50.257Z,101841.16
2022-09-01T12:52:19.989Z,101837.66
2022-09-01T12:54:47.491Z,101831.28
2022-09-01T12:57:27.638Z,101830.47
2022-09-01T13:00:06.027Z,101830.50
2022-09-01T13:02:34.780Z,101828.53
2022-09-01T13:05:19.895Z,101824.94
2022-09-01T13:07:46.365Z,101825.78
2022-09-01T13:10:12.844Z,101830.97
2022-09-01T13:12:42.982Z,101825.38
2022-09-01T13:15:09.896Z,101825.75
2022-09-01T13:17:38.360Z,101823.78
2022-09-01T13:20:07.988Z,101820.19
2022-09-01T13:22:35.107Z,101822.56
2022-09-01T13:25:02.267Z,101813.78
2022-09-01T13:27:28.725Z,101816.94
2022-09-01T13:29:55.767Z,101808.63
2022-09-01T13:32:24.088Z,101812.59
2022-09-01T13:34:52.117Z,101804.28
2022-09-01T13:37:19.291Z,101816.59
2022-09-01T13:39:47.177Z,101810.19
2022-09-01T13:42:15.893Z,101809.66
2022-09-01T13:44:42.476Z,101805.03
2022-09-01T13:50:12.038Z,101809.78
2022-09-01T13:52:47.266Z,101785.00
2022-09-01T13:55:23.745Z,101802.69
2022-09-01T13:57:53.879Z,101796.81
2022-09-01T14:00:24.227Z,101802.94
2022-09-01T14:02:52.976Z,101801.41
2022-09-01T14:05:20.936Z,101793.34
2022-09-01T14:07:48.818Z,101793.38
2022-09-01T14:10:15.563Z,101800.31
2022-09-01T14:12:42.216Z,101785.59
2022-09-01T14:15:11.699Z,101782.09
2022-09-01T14:17:39.870Z,101784.16
2022-09-01T14:20:07.691Z,101775.78
2022-09-01T14:22:38.321Z,101782.19
2022-09-01T14:25:05.503Z,101781.38
2022-09-01T14:27:31.934Z,101765.06
2022-09-01T14:29:58.343Z,101775.81
2022-09-01T14:32:26.675Z,101769.81
2022-09-01T14:34:53.682Z,101768.16
2022-09-01T14:37:21.305Z,101762.72
2022-09-01T14:39:51.559Z,101767.47
2022-09-01T14:44:45.945Z,101758.31
2022-09-01T14:47:12.677Z,101767.16
2022-09-01T14:49:46.678Z,101770.81
2022-09-01T14:52:14.251Z,101764.38
2022-09-01T14:54:42.392Z,101763.59
2022-09-01T14:59:55.256Z,101760.72
2022-09-01T15:02:21.977Z,101755.97
2022-09-01T15:04:48.425Z,101756.34
2022-09-01T15:07:15.226Z,101753.16
2022-09-01T15:09:42.462Z,101759.06
2022-09-01T15:12:09.515Z,101749.44
2022-09-01T15:14:36.221Z,101745.84
2022-09-01T15:17:02.683Z,101741.84
2022-09-01T15:19:29.137Z,101741.78
2022-09-01T15:21:56.107Z,101745.28
2022-09-01T15:24:23.143Z,101746.47
2022-09-01T15:26:49.711Z,101740.88
2022-09-01T15:29:16.040Z,101743.31
2022-09-01T15:31:43.717Z,101739.13
2022-09-01T15:34:11.028Z,101734.22
2022-09-01T15:36:39.927Z,101736.59
2022-09-01T15:39:08.010Z,101727.50
2022-09-01T15:41:34.759Z,101727.84
2022-09-01T15:44:02.109Z,101728.03
2022-09-01T15:46:32.647Z,101728.72
2022-09-01T15:49:00.112Z,101724.03
2022-09-01T15:51:35.151Z,101726.44
2022-09-01T15:54:06.525Z,101716.69
2022-09-01T15:56:33.312Z,101721.47
2022-09-01T15:59:01.268Z,101723.88
2022-09-01T16:01:29.485Z,101723.50
2022-09-01T16:03:56.245Z,101718.31
2022-09-01T16:06:23.357Z,101704.84
2022-09-01T16:08:50.194Z,101715.13
2022-09-01T16:11:16.617Z,101713.97
2022-09-01T16:13:43.225Z,101710.84
2022-09-01T16:16:30.792Z,101704.09
2022-09-01T16:18:57.323Z,101700.16
2022-09-01T16:21:42.435Z,101696.53
2022-09-01T16:24:10.677Z,101704.19
2022-09-01T16:26:37.684Z,101703.31
2022-09-01T16:29:09.330Z,101705.31
2022-09-01T16:31:38.835Z,101704.91
2022-09-01T16:34:15.732Z,101700.94
2022-09-01T16:36:42.076Z,101697.75
2022-09-01T16:39:23.774Z,101697.38
2022-09-01T16:41:53.208Z,101699.75
2022-09-01T16:44:22.607Z,101700.59
2022-09-01T16:46:53.019Z,101696.50
2022-09-01T16:49:38.245Z,101700.53
2022-09-01T16:52:05.567Z,101687.78
2022-09-01T16:54:31.963Z,101687.34
2022-09-01T16:57:21.634Z,101683.44
2022-09-01T16:59:59.408Z,101677.78
2022-09-01T17:02:44.221Z,101678.50
2022-09-01T17:05:24.488Z,101677.56
2022-09-01T17:08:07.589Z,101685.47
2022-09-01T17:10:38.903Z,101687.16
2022-09-01T17:13:20.093Z,101679.56
2022-09-01T17:15:50.433Z,101678.25
2022-09-01T17:18:22.490Z,101686.56
2022-09-01T17:20:55.031Z,101683.75
2022-09-01T17:23:28.522Z,101685.84
2022-09-01T17:25:58.648Z,101687.59
2022-09-01T17:28:47.195Z,101693.28
2022-09-01T17:31:16.998Z,101686.91
2022-09-01T17:33:43.426Z,101694.97
2022-09-01T17:36:18.637Z,101695.22
2022-09-01T17:39:07.712Z,101694.25
2022-09-01T17:41:47.046Z,101699.75
2022-09-01T17:44:17.915Z,101696.56
2022-09-01T17:46:49.743Z,101697.69
2022-09-01T17:49:35.855Z,101707.66
2022-09-01T17:52:15.174Z,101709.00
2022-09-01T17:54:50.099Z,101709.88
2022-09-01T17:57:16.441Z,101708.56
2022-09-01T17:59:45.654Z,101710.56
2022-09-01T18:02:21.327Z,101710.56
2022-09-01T18:04:52.573Z,101710.50
2022-09-01T18:07:34.291Z,101708.00
2022-09-01T18:10:02.463Z,101708.16
2022-09-01T18:12:30.927Z,101705.16
2022-09-01T18:15:26.781Z,101706.19
2022-09-01T18:18:11.649Z,101699.72
2022-09-01T18:20:46.411Z,101708.84
2022-09-01T18:23:15.730Z,101704.00
2022-09-01T18:25:48.074Z,101709.47
2022-09-01T18:28:15.141Z,101705.38
2022-09-01T18:31:04.710Z,101707.41
2022-09-01T18:33:49.320Z,101707.31
2022-09-01T18:36:24.849Z,101713.56
2022-09-01T18:38:57.842Z,101713.47
2022-09-01T18:41:35.219Z,101720.91
2022-09-01T18:44:10.659Z,101725.53
2022-09-01T18:46:53.439Z,101719.88
2022-09-01T18:49:32.315Z,101720.16
2022-09-01T18:52:06.817Z,101713.00
2022-09-01T18:54:36.527Z,101720.94
2022-09-01T18:57:06.961Z,101718.13
2022-09-01T18:59:36.956Z,101720.19
2022-09-01T19:02:22.492Z,101714.84
2022-09-01T19:04:52.701Z,101715.94
2022-09-01T19:07:22.103Z,101720.59
2022-09-01T19:10:03.838Z,101719.47
2022-09-01T19:12:33.295Z,101722.97
2022-09-01T19:15:16.935Z,101728.19
2022-09-01T19:17:43.644Z,101729.03
2022-09-01T19:20:15.191Z,101715.69
2022-09-01T19:22:50.765Z,101717.44
2022-09-01T19:25:34.049Z,101718.78
2022-09-01T19:28:21.201Z,101716.84
2022-09-01T19:30:50.777Z,101718.00
2022-09-01T19:33:21.460Z,101713.72
2022-09-01T19:35:49.057Z,101714.75
2022-09-01T19:38:18.796Z,101724.06
2022-09-01T19:40:48.067Z,101714.56
2022-09-01T19:43:18.033Z,101714.94
2022-09-01T19:45:45.971Z,101713.13
2022-09-01T19:48:15.873Z,101722.97
2022-09-01T19:50:56.750Z,101728.81
2022-09-01T19:53:33.902Z,101724.53
2022-09-01T19:56:15.837Z,101727.88
2022-09-01T20:02:21.152Z,101727.78
2022-09-01T20:04:57.089Z,101724.59
2022-09-01T20:07:33.027Z,101728.47
2022-09-01T20:10:18.190Z,101731.22
2022-09-01T20:12:55.500Z,101734.66
2022-09-01T20:15:28.625Z,101736.81
2022-09-01T20:17:58.111Z,101742.94
2022-09-01T20:20:27.541Z,101739.22
2022-09-01T20:23:00.066Z,101737.47
2022-09-01T20:25:29.354Z,101738.25
2022-09-01T20:28:04.384Z,101745.41
2022-09-01T20:30:40.059Z,101735.78
2022-09-01T20:33:12.782Z,101734.00
2022-09-01T20:35:41.850Z,101740.84
2022-09-01T20:38:31.253Z,101740.47
2022-09-01T20:41:02.328Z,101742.63
2022-09-01T20:43:31.929Z,101740.97
2022-09-01T20:45:58.443Z,101747.03
2022-09-01T20:48:26.501Z,101750.09
2022-09-01T20:50:59.657Z,101737.13
2022-09-01T20:53:44.893Z,101736.22
2022-09-01T20:56:18.436Z,101742.69
2022-09-01T20:58:46.050Z,101742.38
2022-09-01T21:01:17.976Z,101744.06
2022-09-01T21:03:55.900Z,101740.13
2022-09-01T21:06:41.532Z,101738.31
2022-09-01T21:09:33.531Z,101741.91
2022-09-01T21:12:02.622Z,101741.25
2022-09-01T21:14:38.037Z,101739.41
2022-09-01T21:17:26.617Z,101741.94
2022-09-01T21:19:55.789Z,101743.53
2022-09-01T21:22:22.657Z,101747.00
2022-09-01T21:24:49.168Z,101742.28
2022-09-01T21:27:17.786Z,101739.97
2022-09-01T21:29:50.108Z,101744.50
2022-09-01T21:32:16.949Z,101752.47
2022-09-01T21:34:43.996Z,101748.16
2022-09-01T21:37:10.469Z,101750.91
2022-09-01T21:39:36.914Z,101750.00
2022-09-01T21:42:04.052Z,101754.19
2022-09-01T21:44:31.128Z,101744.28
2022-09-01T21:46:57.891Z,101744.53
2022-09-01T21:49:24.651Z,101747.09
2022-09-01T21:51:51.145Z,101751.38
2022-09-01T21:54:17.517Z,101743.72
2022-09-01T21:56:43.852Z,101742.72
2022-09-01T21:59:16.932Z,101742.84
2022-09-01T22:01:43.808Z,101744.56
2022-09-01T22:04:10.352Z,101744.03
2022-09-01T22:06:38.560Z,101742.50
2022-09-01T22:09:20.726Z,101740.91
2022-09-01T22:11:48.005Z,101741.19
2022-09-01T22:14:14.419Z,101740.22
2022-09-01T22:16:40.983Z,101742.72
2022-09-01T22:19:07.379Z,101746.69
2022-09-01T22:21:35.232Z,101737.56
2022-09-01T22:24:01.649Z,101741.56
2022-09-01T22:26:29.152Z,101732.75
2022-09-01T22:28:56.165Z,101729.38
2022-09-01T22:31:23.558Z,101735.28
2022-09-01T22:33:50.667Z,101735.78
2022-09-01T22:36:24.395Z,101737.22
2022-09-01T22:38:50.928Z,101736.16
2022-09-01T22:41:20.971Z,101734.00
2022-09-01T22:43:47.973Z,101737.03
2022-09-01T22:46:15.477Z,101732.22
2022-09-01T22:48:46.136Z,101729.44
2022-09-01T22:51:13.083Z,101728.91
2022-09-01T22:53:42.186Z,101731.41
2022-09-01T22:56:28.313Z,101725.78
2022-09-01T22:58:55.755Z,101729.25
2022-09-01T23:01:23.969Z,101728.53
2022-09-01T23:03:52.023Z,101725.44
2022-09-01T23:06:21.823Z,101718.28
2022-09-01T23:08:54.825Z,101722.41
2022-09-01T23:11:21.689Z,101721.25
2022-09-01T23:13:48.060Z,101725.59
2022-09-01T23:16:14.968Z,101723.13
2022-09-01T23:18:43.343Z,101716.50
2022-09-01T23:21:11.501Z,101723.91
2022-09-01T23:23:38.330Z,101714.53
2022-09-01T23:26:06.406Z,101709.50
2022-09-01T23:28:32.954Z,101714.69
2022-09-01T23:30:59.363Z,101715.88
2022-09-01T23:33:26.404Z,101711.41
2022-09-01T23:35:55.240Z,101708.94
2022-09-01T23:38:23.109Z,101703.94
2022-09-01T23:40:51.438Z,101709.69
2022-09-01T23:43:19.108Z,101707.81
2022-09-01T23:45:47.800Z,101708.78
2022-09-01T23:48:14.960Z,101711.47
2022-09-01T23:50:50.781Z,101712.59
2022-09-01T23:53:17.891Z,101700.22
2022-09-01T23:55:45.973Z,101701.84
2022-09-01T23:58:12.939Z,101700.44
